createdAt,value
2022-11-01T00:01:36.143Z,6.00
2022-11-01T00:04:03.850Z,8.73
2022-11-01T00:06:31.410Z,9.00
2022-11-01T00:08:59.241Z,8.30
2022-11-01T00:11:26.943Z,8.87
2022-11-01T00:13:54.676Z,7.63
2022-11-01T00:16:23.913Z,7.90
2022-11-01T00:18:51.569Z,6.93
2022-11-01T00:21:19.415Z,7.23
2022-11-01T00:23:47.347Z,6.17
2022-11-01T00:26:18.965Z,7.57
2022-11-01T00:28:46.960Z,5.43
2022-11-01T00:31:15.858Z,7.03
2022-11-01T00:33:44.902Z,9.70
2022-11-01T00:36:13.168Z,6.23
2022-11-01T00:38:40.908Z,6.87
2022-11-01T00:41:08.901Z,8.83
2022-11-01T00:43:37.741Z,5.07
2022-11-01T00:46:06.056Z,6.27
2022-11-01T00:48:33.730Z,6.97
2022-11-01T00:51:02.648Z,9.43
2022-11-01T00:53:30.274Z,7.60
2022-11-01T00:56:01.391Z,6.20
2022-11-01T00:58:29.142Z,7.33
2022-11-01T01:00:56.899Z,6.07
2022-11-01T01:03:25.012Z,7.43
2022-11-01T01:05:54.747Z,9.20
2022-11-01T01:08:25.112Z,7.40
2022-11-01T01:10:53.143Z,5.20
2022-11-01T01:13:20.967Z,6.47
2022-11-01T01:15:49.036Z,6.97
2022-11-01T01:18:17.628Z,6.23
2022-11-01T01:20:45.456Z,6.10
2022-11-01T01:23:13.114Z,7.20
2022-11-01T01:25:43.406Z,10.53
2022-11-01T01:28:11.479Z,7.87
2022-11-01T01:30:41.297Z,5.57
2022-11-01T01:33:09.388Z,5.63
2022-11-01T01:35:38.434Z,5.30
2022-11-01T01:38:06.641Z,5.93
2022-11-01T01:40:34.687Z,5.57
2022-11-01T01:43:03.888Z,7.50
2022-11-01T01:45:35.762Z,9.10
2022-11-01T01:48:12.204Z,6.67
2022-11-01T01:50:45.173Z,5.73
2022-11-01T01:53:16.657Z,6.50
2022-11-01T01:55:50.182Z,7.07
2022-11-01T01:58:22.832Z,7.90
2022-11-01T02:00:50.938Z,6.43
2022-11-01T02:03:18.795Z,7.70
2022-11-01T02:05:51.379Z,4.97
2022-11-01T02:08:27.545Z,5.00
2022-11-01T02:10:57.220Z,6.23
2022-11-01T02:13:26.303Z,6.93
2022-11-01T02:16:06.162Z,11.53
2022-11-01T02:18:41.639Z,7.43
2022-11-01T02:21:43.127Z,8.73
2022-11-01T02:24:29.573Z,6.10
2022-11-01T02:27:13.291Z,5.20
2022-11-01T02:29:58.091Z,8.13
2022-11-01T02:32:34.897Z,6.67
2022-11-01T02:35:13.537Z,5.20
2022-11-01T02:37:47.709Z,5.97
2022-11-01T02:40:22.270Z,6.53
2022-11-01T02:42:56.171Z,8.27
2022-11-01T02:45:30.544Z,6.27
2022-11-01T02:48:01.235Z,8.07
2022-11-01T02:50:33.055Z,5.13
2022-11-01T02:53:01.198Z,6.80
2022-11-01T02:55:31.865Z,5.40
2022-11-01T02:58:02.217Z,4.80
2022-11-01T03:00:33.029Z,5.33
2022-11-01T03:03:10.414Z,6.80
2022-11-01T03:05:46.640Z,4.90
2022-11-01T03:08:17.969Z,4.00
2022-11-01T03:10:51.488Z,4.10
2022-11-01T03:13:29.561Z,5.47
2022-11-01T03:16:05.993Z,4.83
2022-11-01T03:18:37.472Z,6.83
2022-11-01T03:21:15.601Z,5.70
2022-11-01T03:23:50.898Z,5.63
2022-11-01T03:26:26.016Z,6.20
2022-11-01T03:28:57.402Z,5.77
2022-11-01T03:31:30.021Z,5.27
2022-11-01T03:34:03.872Z,4.40
2022-11-01T03:36:34.922Z,6.97
2022-11-01T03:39:08.062Z,6.50
2022-11-01T03:41:40.114Z,3.60
2022-11-01T03:44:08.206Z,5.03
2022-11-01T03:46:36.218Z,4.40
2022-11-01T03:49:05.170Z,7.00
2022-11-01T03:51:32.933Z,6.13
2022-11-01T03:54:00.782Z,6.80
2022-11-01T03:56:28.675Z,4.80
2022-11-01T03:58:56.357Z,5.73
2022-11-01T04:01:24.106Z,5.47
2022-11-01T04:03:51.769Z,5.53
2022-11-01T04:06:20.717Z,5.80
2022-11-01T04:08:48.281Z,4.30
2022-11-01T04:11:15.875Z,4.90
2022-11-01T04:13:44.288Z,5.47
2022-11-01T04:16:29.627Z,4.80
2022-11-01T04:19:29.297Z,5.80
2022-11-01T04:21:58.322Z,3.97
2022-11-01T04:24:25.886Z,5.90
2022-11-01T04:26:53.672Z,5.47
2022-11-01T04:29:21.215Z,4.80
2022-11-01T04:31:48.809Z,6.60
2022-11-01T04:34:37.202Z,5.13
2022-11-01T04:37:06.165Z,4.87
2022-11-01T04:39:33.768Z,3.97
2022-11-01T04:42:01.448Z,5.73
2022-11-01T04:44:29.109Z,4.17
2022-11-01T04:46:56.715Z,5.53
2022-11-01T04:49:24.314Z,4.47
2022-11-01T04:51:51.873Z,4.40
2022-11-01T04:54:20.987Z,4.93
2022-11-01T04:56:48.596Z,6.57
2022-11-01T04:59:16.225Z,3.97
2022-11-01T05:01:45.145Z,6.37
2022-11-01T05:04:12.878Z,6.70
2022-11-01T05:06:40.543Z,6.17
2022-11-01T05:09:08.119Z,6.40
2022-11-01T05:11:37.030Z,7.00
2022-11-01T05:14:04.867Z,5.87
2022-11-01T05:16:32.497Z,5.63
2022-11-01T05:19:00.069Z,4.27
2022-11-01T05:21:27.640Z,5.33
2022-11-01T05:23:55.236Z,5.47
2022-11-01T05:26:22.808Z,4.40
2022-11-01T05:28:51.743Z,4.03
2022-11-01T05:31:19.354Z,5.80
2022-11-01T05:33:46.982Z,5.17
2022-11-01T05:36:14.603Z,5.60
2022-11-01T05:38:42.194Z,4.97
2022-11-01T05:41:09.965Z,6.03
2022-11-01T05:43:37.591Z,4.10
2022-11-01T05:46:07.518Z,4.67
2022-11-01T05:48:35.809Z,5.73
2022-11-01T05:51:03.430Z,4.93
2022-11-01T05:53:31.090Z,4.43
2022-11-01T05:55:59.679Z,4.33
2022-11-01T05:58:30.551Z,5.43
2022-11-01T06:00:59.614Z,6.97
2022-11-01T06:03:28.703Z,4.07
2022-11-01T06:05:56.323Z,5.53
2022-11-01T06:08:23.919Z,4.10
2022-11-01T06:10:51.811Z,2.60
2022-11-01T06:13:19.945Z,3.07
2022-11-01T06:15:47.520Z,4.57
2022-11-01T06:18:15.118Z,4.43
2022-11-01T06:20:44.027Z,3.77
2022-11-01T06:23:12.487Z,4.17
2022-11-01T06:25:40.057Z,3.23
2022-11-01T06:28:07.647Z,3.70
2022-11-01T06:30:35.336Z,3.77
2022-11-01T06:33:03.422Z,4.50
2022-11-01T06:35:31.519Z,3.53
2022-11-01T06:38:04.278Z,7.10
2022-11-01T06:40:31.981Z,3.67
2022-11-01T06:43:03.001Z,3.13
2022-11-01T06:45:31.227Z,4.30
2022-11-01T06:47:59.693Z,6.67
2022-11-01T06:50:27.501Z,4.97
2022-11-01T06:52:57.297Z,5.37
2022-11-01T06:55:26.777Z,3.30
2022-11-01T06:57:55.778Z,3.73
2022-11-01T07:00:23.575Z,4.63
2022-11-01T07:02:58.856Z,5.57
2022-11-01T07:05:26.452Z,4.57
2022-11-01T07:07:54.397Z,3.90
2022-11-01T07:10:22.439Z,4.03
2022-11-01T07:12:51.418Z,3.27
2022-11-01T07:15:19.176Z,4.83
2022-11-01T07:17:48.075Z,4.10
2022-11-01T07:20:15.625Z,4.70
2022-11-01T07:22:43.273Z,6.23
2022-11-01T07:25:11.010Z,3.73
2022-11-01T07:27:39.053Z,3.73
2022-11-01T07:30:12.067Z,5.27
2022-11-01T07:32:40.016Z,5.67
2022-11-01T07:35:08.462Z,5.67
2022-11-01T07:37:36.700Z,3.63
2022-11-01T07:40:05.272Z,5.70
2022-11-01T07:42:32.861Z,7.07
2022-11-01T07:45:00.450Z,5.30
2022-11-01T07:47:29.397Z,3.60
2022-11-01T07:49:56.962Z,6.73
2022-11-01T07:52:24.571Z,4.67
2022-11-01T07:54:52.157Z,5.50
2022-11-01T07:57:19.790Z,6.80
2022-11-01T07:59:47.397Z,5.50
2022-11-01T08:02:15.082Z,4.23
2022-11-01T08:04:44.188Z,5.67
2022-11-01T08:07:11.875Z,5.80
2022-11-01T08:09:39.486Z,4.47
2022-11-01T08:12:07.585Z,5.47
2022-11-01T08:14:35.233Z,5.10
2022-11-01T08:17:02.800Z,4.43
2022-11-01T08:19:30.365Z,4.27
2022-11-01T08:21:59.864Z,4.63
2022-11-01T08:24:28.232Z,6.47
2022-11-01T08:26:55.864Z,6.73
2022-11-01T08:29:23.455Z,9.20
2022-11-01T08:31:51.050Z,6.47
2022-11-01T08:34:18.683Z,5.30
2022-11-01T08:36:46.258Z,5.60
2022-11-01T08:39:15.229Z,8.07
2022-11-01T08:41:42.831Z,7.27
2022-11-01T08:44:10.647Z,6.30
2022-11-01T08:46:38.277Z,7.63
2022-11-01T08:49:05.968Z,6.57
2022-11-01T08:51:33.569Z,6.63
2022-11-01T08:54:01.168Z,7.53
2022-11-01T08:56:30.395Z,6.97
2022-11-01T08:58:58.873Z,6.50
2022-11-01T09:01:27.070Z,7.43
2022-11-01T09:03:57.763Z,4.03
2022-11-01T09:06:25.797Z,5.67
2022-11-01T09:08:53.925Z,5.93
2022-11-01T09:11:22.500Z,4.37
2022-11-01T09:13:51.968Z,5.83
2022-11-01T09:16:20.155Z,7.23
2022-11-01T09:18:47.862Z,6.00
2022-11-01T09:21:17.049Z,5.60
2022-11-01T09:23:46.008Z,7.27
2022-11-01T09:26:14.103Z,8.30
2022-11-01T09:28:41.904Z,7.50
2022-11-01T09:31:20.957Z,6.30
2022-11-01T09:33:49.060Z,5.57
2022-11-01T09:36:16.976Z,6.33
2022-11-01T09:38:44.606Z,6.93
2022-11-01T09:41:24.140Z,7.00
2022-11-01T09:43:53.755Z,6.13
2022-11-01T09:46:28.057Z,3.80
2022-11-01T09:48:57.508Z,5.53
2022-11-01T09:51:26.416Z,7.67
2022-11-01T09:53:57.619Z,4.77
2022-11-01T09:56:30.420Z,5.33
2022-11-01T09:59:05.737Z,4.00
2022-11-01T10:01:47.664Z,5.43
2022-11-01T10:04:39.888Z,4.77
2022-11-01T10:07:13.739Z,5.97
2022-11-01T10:09:53.081Z,5.27
2022-11-01T10:12:34.264Z,7.00
2022-11-01T10:15:25.990Z,3.77
2022-11-01T10:17:56.536Z,6.60
2022-11-01T10:20:28.412Z,5.10
2022-11-01T10:22:56.980Z,5.37
2022-11-01T10:25:27.101Z,5.03
2022-11-01T10:28:04.356Z,5.27
2022-11-01T10:30:36.621Z,6.17
2022-11-01T10:33:21.529Z,3.43
2022-11-01T10:35:54.099Z,2.73
2022-11-01T10:41:26.779Z,4.40
2022-11-01T10:43:58.323Z,4.93
2022-11-01T10:46:30.390Z,3.90
2022-11-01T10:49:02.689Z,6.33
2022-11-01T10:51:32.863Z,4.07
2022-11-01T10:54:04.043Z,3.73
2022-11-01T10:56:37.329Z,4.37
2022-11-01T10:59:08.297Z,3.60
2022-11-01T11:01:42.464Z,5.93
2022-11-01T11:04:15.967Z,2.67
2022-11-01T11:06:44.568Z,3.30
2022-11-01T11:09:22.476Z,3.50
2022-11-01T11:11:51.500Z,3.57
2022-11-01T11:14:21.351Z,4.47
2022-11-01T11:16:51.242Z,4.50
2022-11-01T11:19:25.145Z,2.47
2022-11-01T11:21:54.775Z,2.80
2022-11-01T11:24:25.493Z,2.57
2022-11-01T11:26:56.855Z,2.70
2022-11-01T11:29:39.953Z,3.97
2022-11-01T11:32:14.912Z,3.50
2022-11-01T11:34:43.998Z,4.53
2022-11-01T11:37:21.347Z,4.97
2022-11-01T11:40:17.033Z,4.23
2022-11-01T11:42:45.969Z,3.63
2022-11-01T11:45:20.587Z,2.93
2022-11-01T11:47:48.827Z,2.70
2022-11-01T11:50:35.092Z,2.43
2022-11-01T11:53:07.723Z,2.92
2022-11-01T11:55:46.613Z,3.43
2022-11-01T11:58:22.500Z,3.57
2022-11-01T12:00:54.427Z,2.83
2022-11-01T12:03:22.970Z,2.78
2022-11-01T12:06:01.278Z,4.53
2022-11-01T12:08:38.276Z,2.00
2022-11-01T12:11:06.829Z,2.83
2022-11-01T12:13:37.328Z,3.60
2022-11-01T12:16:11.405Z,1.90
2022-11-01T12:18:47.615Z,2.07
2022-11-01T12:21:28.999Z,2.17
2022-11-01T12:24:01.416Z,3.77
2022-11-01T12:26:32.370Z,1.83
2022-11-01T12:29:14.384Z,2.13
2022-11-01T12:31:44.260Z,3.27
2022-11-01T12:34:20.209Z,1.73
2022-11-01T12:36:55.286Z,2.25
2022-11-01T12:39:36.669Z,2.00
2022-11-01T12:42:05.897Z,2.17
2022-11-01T12:44:39.332Z,1.43
2022-11-01T12:47:17.332Z,2.23
2022-11-01T12:49:51.998Z,1.10
2022-11-01T12:52:26.980Z,1.70
2022-11-01T12:55:04.067Z,2.13
2022-11-01T12:57:32.904Z,2.70
2022-11-01T13:00:01.512Z,1.58
2022-11-01T13:02:59.806Z,2.08
2022-11-01T13:05:34.656Z,2.22
2022-11-01T13:08:14.331Z,2.57
2022-11-01T13:10:46.356Z,1.77
2022-11-01T13:13:22.568Z,3.15
2022-11-01T13:16:02.149Z,4.70
2022-11-01T13:18:43.786Z,3.60
2022-11-01T13:21:18.707Z,2.80
2022-11-01T13:23:53.889Z,2.67
2022-11-01T13:26:26.400Z,2.23
2022-11-01T13:29:03.797Z,3.30
2022-11-01T13:31:44.980Z,3.77
2022-11-01T13:34:27.575Z,4.23
2022-11-01T13:37:04.486Z,2.80
2022-11-01T13:39:40.516Z,3.80
2022-11-01T13:42:12.107Z,3.30
2022-11-01T13:44:42.073Z,3.70
2022-11-01T13:47:27.828Z,4.25
2022-11-01T13:50:17.968Z,4.77
2022-11-01T13:52:49.943Z,3.60
2022-11-01T13:55:27.159Z,2.80
2022-11-01T13:57:55.212Z,2.22
2022-11-01T14:00:41.518Z,2.90
2022-11-01T14:03:29.452Z,3.63
2022-11-01T14:06:26.440Z,2.57
2022-11-01T14:09:29.796Z,2.80
2022-11-01T14:12:10.267Z,3.57
2022-11-01T14:14:51.579Z,2.70
2022-11-01T14:17:52.363Z,3.90
2022-11-01T14:20:42.616Z,2.90
2022-11-01T14:23:53.856Z,4.23
2022-11-01T14:26:48.937Z,4.10
2022-11-01T14:29:18.235Z,4.27
2022-11-01T14:31:48.956Z,5.37
2022-11-01T14:34:27.718Z,3.03
2022-11-01T14:36:58.677Z,3.43
2022-11-01T14:39:34.082Z,2.87
2022-11-01T14:42:05.044Z,2.90
2022-11-01T14:44:38.162Z,2.47
2022-11-01T14:47:16.180Z,2.60
2022-11-01T14:49:45.203Z,1.60
2022-11-01T14:52:20.136Z,4.60
2022-11-01T14:54:53.455Z,2.93
2022-11-01T14:57:25.889Z,3.03
2022-11-01T14:59:56.064Z,1.97
2022-11-01T15:02:25.400Z,2.17
2022-11-01T15:04:58.940Z,4.00
2022-11-01T15:07:30.891Z,4.13
2022-11-01T15:10:00.557Z,2.30
2022-11-01T15:12:31.637Z,2.07
2022-11-01T15:15:01.187Z,3.13
2022-11-01T15:17:31.635Z,2.47
2022-11-01T15:20:00.853Z,2.10
2022-11-01T15:22:31.580Z,1.23
2022-11-01T15:25:01.263Z,2.47
2022-11-01T15:27:33.736Z,1.77
2022-11-01T15:30:03.120Z,1.85
2022-11-01T15:32:32.518Z,4.10
2022-11-01T15:35:03.934Z,2.03
2022-11-01T15:37:33.553Z,3.40
2022-11-01T15:40:02.181Z,3.03
2022-11-01T15:42:33.919Z,4.60
2022-11-01T15:45:22.817Z,3.87
2022-11-01T15:47:50.480Z,3.97
2022-11-01T15:50:18.392Z,4.43
2022-11-01T15:52:46.828Z,3.80
2022-11-01T15:55:19.039Z,4.33
2022-11-01T15:57:49.950Z,2.93
2022-11-01T16:00:19.858Z,3.80
2022-11-01T16:02:55.813Z,4.20
2022-11-01T16:05:28.005Z,3.58
2022-11-01T16:07:55.688Z,3.73
2022-11-01T16:10:26.900Z,4.50
2022-11-01T16:12:56.150Z,3.20
2022-11-01T16:15:27.045Z,3.75
2022-11-01T16:17:59.195Z,3.27
2022-11-01T16:20:33.930Z,4.18
2022-11-01T16:23:03.615Z,3.95
2022-11-01T16:25:33.695Z,3.63
2022-11-01T16:28:07.276Z,1.80
2022-11-01T16:30:45.253Z,3.88
2022-11-01T16:33:43.491Z,2.07
2022-11-01T16:36:37.034Z,3.97
2022-11-01T16:39:27.170Z,3.47
2022-11-01T16:41:55.055Z,5.85
2022-11-01T16:44:22.911Z,3.95
2022-11-01T16:46:51.089Z,4.93
2022-11-01T16:49:24.903Z,3.70
2022-11-01T16:51:56.292Z,3.65
2022-11-01T16:54:24.156Z,3.38
2022-11-01T16:56:54.673Z,3.20
2022-11-01T16:59:30.904Z,3.57
2022-11-01T17:01:59.038Z,4.43
2022-11-01T17:04:29.375Z,3.87
2022-11-01T17:06:58.861Z,2.50
2022-11-01T17:09:31.470Z,3.90
2022-11-01T17:11:59.112Z,3.37
2022-11-01T17:14:26.804Z,4.53
2022-11-01T17:16:56.404Z,4.22
2022-11-01T17:19:30.568Z,3.63
2022-11-01T17:22:00.021Z,3.80
2022-11-01T17:24:28.370Z,3.17
2022-11-01T17:26:58.876Z,5.72
2022-11-01T17:29:26.566Z,3.08
2022-11-01T17:31:54.169Z,6.13
2022-11-01T17:34:21.927Z,3.63
2022-11-01T17:36:51.531Z,4.30
2022-11-01T17:39:19.791Z,4.53
2022-11-01T17:41:47.381Z,4.20
2022-11-01T17:44:15.598Z,2.60
2022-11-01T17:46:43.749Z,4.40
2022-11-01T17:49:14.512Z,2.37
2022-11-01T17:51:42.605Z,3.10
2022-11-01T17:54:11.706Z,4.17
2022-11-01T17:56:39.490Z,3.63
2022-11-01T17:59:08.603Z,6.07
2022-11-01T18:01:38.135Z,4.45
2022-11-01T18:04:06.686Z,4.85
2022-11-01T18:06:34.280Z,3.37
2022-11-01T18:09:04.121Z,6.97
2022-11-01T18:11:39.419Z,3.63
2022-11-01T18:14:14.724Z,4.47
2022-11-01T18:16:48.557Z,4.07
2022-11-01T18:19:33.651Z,4.15
2022-11-01T18:22:10.607Z,4.00
2022-11-01T18:24:43.070Z,4.18
2022-11-01T18:27:13.652Z,4.00
2022-11-01T18:29:46.231Z,5.93
2022-11-01T18:32:19.361Z,3.90
2022-11-01T18:34:50.658Z,2.75
2022-11-01T18:37:25.720Z,4.38
2022-11-01T18:40:03.734Z,3.03
2022-11-01T18:42:32.746Z,3.37
2022-11-01T18:45:08.326Z,3.95
2022-11-01T18:47:43.194Z,4.65
2022-11-01T18:50:21.380Z,3.77
2022-11-01T18:52:49.283Z,3.33
2022-11-01T18:55:17.174Z,5.85
2022-11-01T18:57:46.258Z,4.35
2022-11-01T19:00:15.718Z,3.78
2022-11-01T19:02:43.353Z,4.03
2022-11-01T19:05:17.140Z,4.32
2022-11-01T19:08:09.511Z,3.80
2022-11-01T19:10:35.322Z,5.55
2022-11-01T19:13:13.470Z,3.30
2022-11-01T19:15:41.351Z,3.90
2022-11-01T19:18:19.017Z,3.00
2022-11-01T19:20:49.900Z,3.67
2022-11-01T19:23:21.084Z,4.00
2022-11-01T19:25:50.009Z,3.92
2022-11-01T19:28:26.145Z,5.80
2022-11-01T19:30:56.464Z,3.10
2022-11-01T19:33:31.956Z,3.75
2022-11-01T19:36:03.772Z,4.45
2022-11-01T19:38:46.537Z,5.22
2022-11-01T19:41:41.674Z,5.15
2022-11-01T19:44:29.608Z,3.85
2022-11-01T19:47:23.480Z,5.25
2022-11-01T19:50:19.053Z,4.47
2022-11-01T19:56:33.492Z,5.00
2022-11-01T19:59:06.642Z,6.53
2022-11-01T20:01:46.363Z,6.10
2022-11-01T20:04:26.175Z,5.60
2022-11-01T20:06:57.485Z,4.40
2022-11-01T20:09:26.896Z,5.23
2022-11-01T20:11:54.844Z,4.33
2022-11-01T20:14:22.868Z,6.70
2022-11-01T20:16:51.974Z,5.27
2022-11-01T20:19:20.372Z,5.57
2022-11-01T20:21:48.065Z,6.80
2022-11-01T20:24:16.534Z,6.67
2022-11-01T20:26:44.161Z,4.00
2022-11-01T20:29:11.835Z,4.53
2022-11-01T20:31:40.014Z,5.97
2022-11-01T20:34:09.334Z,4.37
2022-11-01T20:36:38.183Z,3.97
2022-11-01T20:39:08.140Z,6.30
2022-11-01T20:41:38.122Z,5.93
2022-11-01T20:44:06.227Z,5.27
2022-11-01T20:46:33.832Z,5.17
2022-11-01T20:49:03.079Z,6.30
2022-11-01T20:51:32.078Z,4.90
2022-11-01T20:54:00.129Z,4.67
2022-11-01T20:56:28.059Z,6.20
2022-11-01T20:58:55.686Z,6.67
2022-11-01T21:01:23.550Z,5.43
2022-11-01T21:03:53.136Z,4.43
2022-11-01T21:06:22.421Z,6.13
2022-11-01T21:08:51.796Z,5.40
2022-11-01T21:11:23.366Z,3.93
2022-11-01T21:13:52.480Z,4.97
2022-11-01T21:16:28.926Z,3.50
2022-11-01T21:19:02.075Z,3.50
2022-11-01T21:21:46.242Z,5.13
2022-11-01T21:24:41.466Z,4.03
2022-11-01T21:27:25.978Z,4.60
2022-11-01T21:29:59.603Z,5.93
2022-11-01T21:32:30.728Z,4.37
2022-11-01T21:34:58.975Z,5.07
2022-11-01T21:37:29.547Z,5.03
2022-11-01T21:40:05.749Z,6.00
2022-11-01T21:42:39.502Z,5.10
2022-11-01T21:45:27.232Z,6.63
2022-11-01T21:47:55.081Z,5.20
2022-11-01T21:50:22.717Z,7.80
2022-11-01T21:52:50.282Z,5.03
2022-11-01T21:55:22.385Z,5.00
2022-11-01T21:57:50.041Z,4.37
2022-11-01T22:00:17.942Z,3.80
2022-11-01T22:02:45.723Z,4.07
2022-11-01T22:05:13.635Z,5.40
2022-11-01T22:07:41.332Z,5.37
2022-11-01T22:10:09.916Z,4.60
2022-11-01T22:12:38.843Z,5.37
2022-11-01T22:15:07.648Z,4.57
2022-11-01T22:17:37.965Z,3.90
2022-11-01T22:20:06.552Z,5.90
2022-11-01T22:22:34.172Z,7.13
2022-11-01T22:25:01.846Z,5.67
2022-11-01T22:27:29.464Z,3.50
2022-11-01T22:29:58.580Z,3.63
2022-11-01T22:32:26.332Z,3.87
2022-11-01T22:34:53.987Z,3.37
2022-11-01T22:37:21.547Z,5.20
2022-11-01T22:39:53.004Z,3.37
2022-11-01T22:42:21.837Z,4.27
2022-11-01T22:44:51.128Z,3.17
2022-11-01T22:47:25.509Z,4.97
2022-11-01T22:49:55.242Z,3.30
2022-11-01T22:52:31.447Z,3.77
2022-11-01T22:55:04.598Z,3.37
2022-11-01T22:57:35.757Z,5.97
2022-11-01T23:00:26.149Z,3.17
2022-11-01T23:03:01.793Z,4.50
2022-11-01T23:05:29.755Z,5.40
2022-11-01T23:07:58.994Z,4.70
2022-11-01T23:10:30.312Z,4.60
2022-11-01T23:13:26.066Z,3.60
2022-11-01T23:15:55.965Z,3.43
2022-11-01T23:18:27.645Z,5.97
2022-11-01T23:20:57.460Z,3.70
2022-11-01T23:23:25.729Z,4.47
2022-11-01T23:25:55.367Z,4.00
2022-11-01T23:28:24.456Z,3.47
2022-11-01T23:30:53.743Z,4.37
2022-11-01T23:33:24.184Z,3.83
2022-11-01T23:35:55.657Z,3.60
2022-11-01T23:38:30.432Z,3.27
2022-11-01T23:40:58.525Z,3.30
2022-11-01T23:43:34.910Z,3.93
2022-11-01T23:46:03.320Z,4.70
2022-11-01T23:48:31.034Z,4.03
2022-11-01T23:51:00.297Z,5.13
2022-11-01T23:53:34.866Z,4.57
2022-11-01T23:56:04.110Z,4.30
2022-11-01T23:58:33.629Z,2.93
